createdAt,value
2022-11-12T00:01:17.514Z,46.50
2022-11-12T00:03:45.631Z,59.60
2022-11-12T00:06:13.916Z,58.70
2022-11-12T00:08:43.824Z,61.90
2022-11-12T00:11:12.110Z,58.70
2022-11-12T00:13:40.740Z,59.60
2022-11-12T00:16:09.905Z,60.70
2022-11-12T00:18:37.987Z,59.70
2022-11-12T00:21:06.214Z,54.80
2022-11-12T00:23:34.297Z,46.70
2022-11-12T00:26:03.765Z,60.00
2022-11-12T00:28:37.309Z,60.00
2022-11-12T00:31:10.799Z,60.40
2022-11-12T00:33:41.919Z,46.70
2022-11-12T00:36:10.560Z,58.70
2022-11-12T00:38:38.858Z,46.50
2022-11-12T00:41:08.247Z,47.30
2022-11-12T00:43:36.358Z,58.90
2022-11-12T00:46:04.635Z,49.30
2022-11-12T00:48:32.694Z,62.70
2022-11-12T00:51:02.249Z,64.10
2022-11-12T00:53:30.344Z,64.20
2022-11-12T00:56:03.066Z,49.50
2022-11-12T00:58:33.551Z,50.00
2022-11-12T01:01:07.705Z,66.60
2022-11-12T01:03:36.049Z,62.90
2022-11-12T01:06:05.841Z,68.00
2022-11-12T01:08:34.005Z,62.20
2022-11-12T01:11:07.639Z,49.70
2022-11-12T01:13:43.841Z,64.40
2022-11-12T01:16:14.367Z,65.20
2022-11-12T01:18:42.855Z,65.40
2022-11-12T01:21:11.439Z,64.30
2022-11-12T01:23:41.587Z,66.30
2022-11-12T01:26:11.489Z,66.20
2022-11-12T01:28:41.823Z,63.40
2022-11-12T01:31:14.799Z,50.10
2022-11-12T01:33:44.069Z,65.50
2022-11-12T01:36:13.579Z,63.00
2022-11-12T01:38:43.270Z,64.00
2022-11-12T01:41:13.869Z,49.90
2022-11-12T01:43:43.515Z,49.90
2022-11-12T01:46:19.689Z,63.50
2022-11-12T01:48:51.943Z,49.80
2022-11-12T01:51:21.659Z,63.90
2022-11-12T01:53:54.274Z,49.80
2022-11-12T01:56:25.025Z,64.10
2022-11-12T01:58:58.605Z,62.90
2022-11-12T02:01:27.282Z,49.70
2022-11-12T02:03:56.412Z,59.90
2022-11-12T02:06:26.000Z,49.30
2022-11-12T02:08:54.864Z,57.00
2022-11-12T02:11:23.458Z,59.10
2022-11-12T02:14:01.226Z,56.80
2022-11-12T02:16:32.701Z,56.90
2022-11-12T02:19:01.231Z,59.00
2022-11-12T02:21:31.623Z,49.60
2022-11-12T02:24:04.719Z,49.60
2022-11-12T02:26:36.769Z,56.60
2022-11-12T02:29:05.234Z,58.10
2022-11-12T02:31:33.306Z,58.20
2022-11-12T02:34:01.394Z,49.50
2022-11-12T02:36:31.540Z,49.50
2022-11-12T02:38:59.756Z,49.40
2022-11-12T02:41:28.028Z,49.40
2022-11-12T02:43:56.128Z,49.40
2022-11-12T02:46:24.366Z,49.40
2022-11-12T02:48:52.433Z,49.40
2022-11-12T02:51:20.497Z,49.40
2022-11-12T02:53:49.949Z,49.30
2022-11-12T02:56:18.023Z,49.30
2022-11-12T02:58:46.118Z,49.40
2022-11-12T03:01:14.212Z,49.40
2022-11-12T03:03:42.363Z,49.40
2022-11-12T03:06:10.431Z,49.40
2022-11-12T03:08:38.531Z,49.40
2022-11-12T03:11:12.912Z,49.30
2022-11-12T03:13:41.642Z,49.30
2022-11-12T03:16:10.541Z,49.30
2022-11-12T03:18:38.852Z,49.30
2022-11-12T03:21:07.319Z,49.30
2022-11-12T03:23:35.429Z,48.90
2022-11-12T03:26:04.998Z,48.50
2022-11-12T03:28:34.498Z,49.20
2022-11-12T03:31:03.107Z,49.10
2022-11-12T03:33:31.227Z,52.30
2022-11-12T03:35:59.310Z,51.70
2022-11-12T03:38:27.611Z,51.80
2022-11-12T03:40:56.001Z,51.80
2022-11-12T03:43:24.105Z,54.70
2022-11-12T03:45:53.546Z,52.00
2022-11-12T03:48:21.725Z,52.00
2022-11-12T03:50:49.994Z,52.00
2022-11-12T03:53:18.102Z,52.00
2022-11-12T03:55:46.390Z,52.00
2022-11-12T03:58:14.786Z,51.90
2022-11-12T04:00:42.978Z,51.90
2022-11-12T04:03:12.467Z,51.90
2022-11-12T04:06:06.471Z,51.80
2022-11-12T04:08:37.434Z,51.80
2022-11-12T04:11:08.862Z,51.70
2022-11-12T04:13:38.493Z,51.60
2022-11-12T04:16:35.131Z,51.60
2022-11-12T04:19:23.520Z,51.50
2022-11-12T04:21:55.882Z,51.50
2022-11-12T04:24:44.324Z,51.40
2022-11-12T04:27:16.129Z,51.40
2022-11-12T04:30:10.827Z,51.40
2022-11-12T04:32:40.913Z,51.30
2022-11-12T04:35:10.568Z,51.20
2022-11-12T04:37:47.970Z,51.20
2022-11-12T04:40:35.175Z,51.20
2022-11-12T04:43:22.519Z,51.10
2022-11-12T04:45:53.541Z,51.10
2022-11-12T04:48:22.601Z,51.00
2022-11-12T04:50:55.729Z,51.00
2022-11-12T04:53:24.598Z,50.90
2022-11-12T04:55:53.436Z,50.90
2022-11-12T04:58:21.737Z,50.80
2022-11-12T05:00:50.921Z,50.80
2022-11-12T05:03:19.598Z,50.80
2022-11-12T05:05:47.684Z,50.70
2022-11-12T05:08:17.163Z,50.70
2022-11-12T05:10:45.900Z,50.70
2022-11-12T05:13:13.998Z,50.50
2022-11-12T05:15:42.072Z,50.60
2022-11-12T05:18:10.167Z,50.50
2022-11-12T05:20:38.271Z,50.50
2022-11-12T05:23:07.741Z,50.40
2022-11-12T05:25:37.643Z,50.40
2022-11-12T05:28:07.249Z,50.40
2022-11-12T05:30:36.624Z,50.40
2022-11-12T05:33:04.848Z,50.50
2022-11-12T05:35:32.908Z,52.30
2022-11-12T05:38:00.989Z,50.80
2022-11-12T05:40:29.057Z,52.80
2022-11-12T05:42:58.539Z,53.00
2022-11-12T05:45:26.596Z,53.70
2022-11-12T05:47:54.684Z,53.40
2022-11-12T05:50:22.787Z,53.40
2022-11-12T05:52:50.915Z,53.50
2022-11-12T05:55:18.972Z,53.40
2022-11-12T05:57:47.067Z,53.50
2022-11-12T06:00:17.855Z,53.40
2022-11-12T06:02:45.992Z,53.40
2022-11-12T06:05:14.122Z,53.40
2022-11-12T06:07:42.226Z,53.30
2022-11-12T06:10:11.474Z,53.30
2022-11-12T06:12:42.004Z,53.20
2022-11-12T06:15:10.615Z,53.10
2022-11-12T06:17:40.094Z,53.00
2022-11-12T06:20:09.228Z,52.90
2022-11-12T06:22:37.703Z,52.50
2022-11-12T06:25:06.528Z,47.90
2022-11-12T06:27:34.611Z,47.90
2022-11-12T06:30:02.737Z,49.60
2022-11-12T06:32:30.803Z,49.30
2022-11-12T06:35:00.262Z,49.50
2022-11-12T06:37:28.506Z,49.50
2022-11-12T06:39:56.597Z,49.60
2022-11-12T06:42:24.733Z,49.70
2022-11-12T06:44:52.857Z,49.70
2022-11-12T06:47:20.947Z,49.80
2022-11-12T06:49:49.037Z,49.90
2022-11-12T06:52:18.506Z,49.90
2022-11-12T06:54:46.731Z,50.60
2022-11-12T06:57:14.898Z,51.60
2022-11-12T06:59:42.997Z,52.40
2022-11-12T07:02:13.696Z,52.40
2022-11-12T07:04:41.811Z,52.30
2022-11-12T07:07:10.987Z,52.30
2022-11-12T07:09:40.779Z,52.30
2022-11-12T07:12:09.346Z,49.20
2022-11-12T07:14:37.406Z,49.30
2022-11-12T07:17:05.508Z,50.10
2022-11-12T07:19:33.617Z,50.20
2022-11-12T07:22:01.700Z,51.20
2022-11-12T07:24:29.821Z,54.10
2022-11-12T07:26:59.294Z,53.00
2022-11-12T07:29:46.477Z,55.00
2022-11-12T07:32:15.598Z,55.70
2022-11-12T07:34:43.663Z,55.90
2022-11-12T07:37:11.795Z,55.80
2022-11-12T07:39:39.861Z,55.90
2022-11-12T07:42:09.363Z,55.90
2022-11-12T07:44:37.447Z,55.90
2022-11-12T07:47:05.609Z,55.90
2022-11-12T07:49:33.724Z,55.90
2022-11-12T07:52:01.833Z,55.90
2022-11-12T07:54:29.894Z,55.70
2022-11-12T07:56:58.014Z,55.60
2022-11-12T07:59:28.182Z,55.40
2022-11-12T08:01:56.337Z,55.20
2022-11-12T08:04:24.512Z,54.90
2022-11-12T08:06:52.701Z,54.60
2022-11-12T08:09:20.869Z,54.20
2022-11-12T08:11:48.975Z,53.80
2022-11-12T08:14:17.070Z,53.60
2022-11-12T08:16:47.023Z,53.10
2022-11-12T08:19:15.083Z,52.70
2022-11-12T08:21:43.422Z,52.70
2022-11-12T08:24:11.646Z,52.80
2022-11-12T08:26:39.728Z,52.80
2022-11-12T08:29:08.957Z,52.80
2022-11-12T08:31:37.715Z,52.80
2022-11-12T08:34:15.203Z,52.80
2022-11-12T08:36:46.732Z,52.80
2022-11-12T08:39:14.826Z,53.00
2022-11-12T08:41:42.911Z,53.00
2022-11-12T08:44:10.973Z,53.00
2022-11-12T08:46:39.084Z,52.90
2022-11-12T08:49:08.606Z,52.80
2022-11-12T08:51:36.715Z,52.70
2022-11-12T08:54:04.949Z,52.60
2022-11-12T08:56:33.973Z,52.70
2022-11-12T08:59:07.087Z,52.40
2022-11-12T09:01:35.631Z,52.30
2022-11-12T09:04:03.755Z,52.30
2022-11-12T09:06:33.373Z,52.20
2022-11-12T09:09:01.452Z,51.80
2022-11-12T09:11:29.599Z,51.80
2022-11-12T09:13:57.770Z,51.60
2022-11-12T09:16:25.927Z,51.60
2022-11-12T09:18:54.007Z,51.50
2022-11-12T09:21:24.887Z,51.30
2022-11-12T09:23:55.624Z,51.10
2022-11-12T09:26:23.839Z,51.20
2022-11-12T09:28:52.474Z,51.50
2022-11-12T09:31:20.745Z,51.40
2022-11-12T09:33:48.903Z,49.20
2022-11-12T09:36:18.263Z,47.10
2022-11-12T09:38:46.325Z,51.00
2022-11-12T09:41:26.837Z,43.30
2022-11-12T09:43:58.146Z,48.90
2022-11-12T09:46:46.281Z,41.90
2022-11-12T09:49:20.278Z,51.40
2022-11-12T09:51:52.893Z,51.10
2022-11-12T09:56:54.333Z,50.20
2022-11-12T09:59:24.405Z,51.10
2022-11-12T10:01:59.439Z,39.80
2022-11-12T10:04:44.434Z,44.20
2022-11-12T10:07:22.277Z,56.00
2022-11-12T10:10:02.536Z,58.70
2022-11-12T10:12:43.514Z,40.20
2022-11-12T10:15:48.380Z,36.50
2022-11-12T10:18:24.748Z,38.40
2022-11-12T10:20:58.170Z,34.60
2022-11-12T10:23:29.563Z,41.30
2022-11-12T10:26:00.940Z,59.30
2022-11-12T10:28:38.608Z,52.40
2022-11-12T10:31:13.537Z,42.90
2022-11-12T10:33:41.634Z,52.70
2022-11-12T10:36:22.880Z,46.20
2022-11-12T10:38:54.031Z,46.40
2022-11-12T10:41:25.651Z,46.10
2022-11-12T10:44:06.521Z,35.80
2022-11-12T10:46:37.629Z,44.10
2022-11-12T10:49:08.174Z,41.70
2022-11-12T10:51:37.958Z,32.60
2022-11-12T10:54:29.526Z,32.50
2022-11-12T10:56:57.626Z,32.50
2022-11-12T10:59:27.523Z,38.80
2022-11-12T11:01:57.929Z,44.40
2022-11-12T11:04:37.607Z,37.00
2022-11-12T11:07:06.927Z,30.60
2022-11-12T11:09:36.132Z,30.20
2022-11-12T11:12:04.394Z,33.40
2022-11-12T11:14:36.089Z,33.10
2022-11-12T11:17:09.346Z,30.00
2022-11-12T11:19:40.012Z,30.30
2022-11-12T11:22:22.723Z,30.20
2022-11-12T11:25:02.556Z,30.10
2022-11-12T11:27:38.996Z,30.00
2022-11-12T11:30:14.865Z,30.30
2022-11-12T11:33:25.708Z,30.20
2022-11-12T11:36:11.002Z,30.30
2022-11-12T11:38:50.898Z,30.40
2022-11-12T11:41:43.987Z,30.20
2022-11-12T11:44:23.257Z,30.10
2022-11-12T11:47:04.998Z,30.30
2022-11-12T11:50:01.024Z,30.30
2022-11-12T11:52:42.858Z,30.50
2022-11-12T11:55:29.202Z,29.90
2022-11-12T11:58:05.620Z,29.80
2022-11-12T12:00:43.855Z,32.10
2022-11-12T12:03:21.335Z,35.40
2022-11-12T12:06:07.677Z,29.50
2022-11-12T12:08:54.372Z,30.00
2022-11-12T12:11:28.764Z,39.40
2022-11-12T12:14:10.494Z,30.70
2022-11-12T12:16:54.158Z,39.60
2022-11-12T12:19:42.748Z,40.90
2022-11-12T12:22:15.391Z,31.40
2022-11-12T12:24:49.973Z,39.60
2022-11-12T12:27:22.862Z,39.80
2022-11-12T12:29:55.535Z,36.20
2022-11-12T12:32:30.748Z,29.80
2022-11-12T12:35:07.498Z,34.10
2022-11-12T12:37:42.598Z,36.20
2022-11-12T12:40:20.095Z,36.40
2022-11-12T12:42:55.125Z,41.40
2022-11-12T12:45:39.379Z,41.30
2022-11-12T12:48:14.853Z,41.00
2022-11-12T12:50:45.605Z,30.30
2022-11-12T12:53:33.158Z,31.20
2022-11-12T12:56:03.327Z,46.00
2022-11-12T12:58:33.595Z,51.60
2022-11-12T13:04:04.601Z,33.80
2022-11-12T13:06:36.253Z,32.00
2022-11-12T13:09:21.767Z,46.80
2022-11-12T13:14:54.459Z,33.30
2022-11-12T13:17:48.105Z,50.10
2022-11-12T13:20:38.365Z,36.80
2022-11-12T13:24:05.611Z,34.90
2022-11-12T13:26:55.930Z,55.70
2022-11-12T13:29:45.865Z,34.10
2022-11-12T13:32:39.410Z,51.60
2022-11-12T13:35:41.499Z,37.50
2022-11-12T13:38:15.755Z,36.80
2022-11-12T13:40:47.677Z,35.30
2022-11-12T13:43:32.637Z,32.50
2022-11-12T13:46:25.640Z,37.10
2022-11-12T13:49:00.121Z,52.50
2022-11-12T13:51:39.192Z,51.30
2022-11-12T13:54:30.329Z,52.30
2022-11-12T13:57:27.353Z,35.70
2022-11-12T14:00:22.851Z,41.70
2022-11-12T14:02:55.331Z,59.60
2022-11-12T14:08:22.739Z,45.20
2022-11-12T14:11:05.356Z,43.30
2022-11-12T14:13:51.058Z,54.90
2022-11-12T14:16:29.030Z,56.90
2022-11-12T14:19:24.981Z,49.30
2022-11-12T14:22:03.410Z,61.60
2022-11-12T14:24:34.328Z,56.30
2022-11-12T14:27:02.410Z,58.20
2022-11-12T14:29:36.002Z,66.00
2022-11-12T14:32:10.770Z,63.80
2022-11-12T14:34:38.859Z,61.10
2022-11-12T14:42:04.094Z,66.40
2022-11-12T14:44:37.286Z,61.70
2022-11-12T14:47:05.704Z,65.90
2022-11-12T14:49:43.830Z,61.80
2022-11-12T14:52:19.018Z,61.50
2022-11-12T14:54:50.525Z,62.10
2022-11-12T14:57:21.940Z,68.10
2022-11-12T14:59:51.527Z,62.80
2022-11-12T15:02:37.367Z,70.60
2022-11-12T15:05:15.389Z,64.50
2022-11-12T15:07:55.095Z,65.80
2022-11-12T15:10:37.515Z,65.30
2022-11-12T15:13:08.993Z,70.60
2022-11-12T15:15:41.418Z,63.50
2022-11-12T15:18:17.681Z,41.90
2022-11-12T15:20:46.110Z,63.70
2022-11-12T15:23:19.733Z,60.70
2022-11-12T15:25:58.194Z,63.10
2022-11-12T15:28:27.425Z,65.00
2022-11-12T15:31:07.482Z,40.80
2022-11-12T15:38:37.829Z,43.30
2022-11-12T15:41:06.675Z,60.20
2022-11-12T15:46:06.664Z,49.90
2022-11-12T15:48:34.753Z,60.30
2022-11-12T15:51:02.837Z,62.40
2022-11-12T15:53:31.107Z,62.80
2022-11-12T15:55:59.229Z,60.40
2022-11-12T15:58:33.862Z,63.40
2022-11-12T16:01:02.561Z,66.40
2022-11-12T16:03:32.317Z,64.00
2022-11-12T16:06:05.529Z,61.20
2022-11-12T16:08:36.614Z,61.40
2022-11-12T16:11:25.069Z,64.60
2022-11-12T16:13:53.338Z,66.80
2022-11-12T16:16:21.435Z,64.00
2022-11-12T16:18:50.898Z,63.80
2022-11-12T16:21:20.985Z,48.20
2022-11-12T16:23:49.331Z,62.40
2022-11-12T16:26:26.129Z,63.10
2022-11-12T16:28:54.278Z,65.50
2022-11-12T16:31:22.846Z,62.20
2022-11-12T16:33:52.369Z,64.10
2022-11-12T16:36:20.465Z,46.80
2022-11-12T16:38:48.807Z,62.10
2022-11-12T16:41:16.918Z,64.10
2022-11-12T16:43:45.049Z,61.10
2022-11-12T16:46:25.023Z,63.50
2022-11-12T16:48:54.318Z,46.60
2022-11-12T16:51:23.991Z,59.80
2022-11-12T16:53:52.142Z,43.30
2022-11-12T16:56:21.634Z,67.40
2022-11-12T16:58:50.454Z,62.00
2022-11-12T17:01:25.576Z,68.80
2022-11-12T17:03:56.666Z,66.80
2022-11-12T17:06:32.579Z,65.10
2022-11-12T17:09:00.916Z,62.40
2022-11-12T17:11:28.998Z,62.00
2022-11-12T17:13:57.097Z,60.60
2022-11-12T17:16:25.190Z,67.10
2022-11-12T17:18:56.735Z,60.30
2022-11-12T17:21:24.860Z,62.10
2022-11-12T17:23:53.019Z,61.50
2022-11-12T17:26:22.004Z,61.00
2022-11-12T17:28:55.588Z,60.50
2022-11-12T17:31:27.715Z,58.70
2022-11-12T17:33:57.218Z,58.20
2022-11-12T17:36:27.232Z,56.60
2022-11-12T17:38:56.002Z,57.60
2022-11-12T17:41:24.257Z,58.60
2022-11-12T17:43:56.236Z,60.30
2022-11-12T17:48:53.395Z,60.60
2022-11-12T17:51:26.020Z,61.70
2022-11-12T17:53:54.498Z,53.90
2022-11-12T17:56:24.220Z,61.80
2022-11-12T17:58:52.901Z,62.20
2022-11-12T18:01:23.247Z,64.60
2022-11-12T18:03:53.448Z,68.10
2022-11-12T18:06:25.197Z,42.90
2022-11-12T18:08:56.013Z,53.50
2022-11-12T18:11:24.832Z,43.20
2022-11-12T18:13:52.902Z,57.60
2022-11-12T18:16:23.374Z,44.70
2022-11-12T18:18:52.127Z,61.40
2022-11-12T18:21:20.224Z,45.60
2022-11-12T18:23:49.833Z,61.50
2022-11-12T18:26:19.685Z,60.00
2022-11-12T18:28:52.543Z,60.40
2022-11-12T18:31:20.961Z,46.00
2022-11-12T18:33:49.717Z,46.00
2022-11-12T18:36:20.900Z,45.40
2022-11-12T18:38:52.379Z,51.90
2022-11-12T18:41:25.516Z,58.80
2022-11-12T18:43:53.639Z,45.90
2022-11-12T18:46:21.734Z,45.00
2022-11-12T18:48:50.366Z,45.80
2022-11-12T18:51:20.498Z,57.80
2022-11-12T18:53:50.129Z,57.40
2022-11-12T18:56:20.384Z,45.60
2022-11-12T18:58:49.221Z,58.30
2022-11-12T19:01:20.851Z,57.10
2022-11-12T19:03:52.843Z,57.30
2022-11-12T19:06:21.446Z,46.30
2022-11-12T19:08:51.106Z,46.30
2022-11-12T19:11:21.860Z,57.40
2022-11-12T19:13:52.182Z,57.50
2022-11-12T19:16:22.923Z,56.30
2022-11-12T19:18:52.974Z,46.40
2022-11-12T19:21:21.485Z,46.40
2022-11-12T19:23:54.263Z,46.80
2022-11-12T19:26:23.784Z,54.80
2022-11-12T19:28:52.536Z,58.90
2022-11-12T19:31:23.106Z,48.80
2022-11-12T19:33:51.736Z,59.90
2022-11-12T19:36:22.118Z,61.00
2022-11-12T19:38:55.062Z,49.40
2022-11-12T19:41:23.631Z,49.60
2022-11-12T19:43:51.972Z,61.30
2022-11-12T19:46:20.663Z,61.00
2022-11-12T19:48:48.878Z,61.10
2022-11-12T19:51:17.402Z,59.60
2022-11-12T19:53:45.583Z,60.60
2022-11-12T19:56:17.218Z,60.20
2022-11-12T19:58:46.370Z,60.10
2022-11-12T20:01:17.202Z,49.70
2022-11-12T20:03:46.016Z,59.60
2022-11-12T20:06:15.677Z,59.70
2022-11-12T20:08:43.782Z,59.60
2022-11-12T20:11:12.415Z,59.40
2022-11-12T20:13:41.911Z,59.10
2022-11-12T20:16:11.076Z,58.10
2022-11-12T20:18:39.185Z,58.20
2022-11-12T20:21:09.117Z,58.30
2022-11-12T20:23:37.492Z,49.70
2022-11-12T20:26:06.934Z,58.90
2022-11-12T20:28:35.113Z,58.40
2022-11-12T20:31:06.899Z,59.10
2022-11-12T20:36:12.833Z,57.40
2022-11-12T20:38:42.133Z,49.30
2022-11-12T20:41:15.391Z,50.00
2022-11-12T20:43:43.662Z,49.90
2022-11-12T20:46:14.247Z,59.70
2022-11-12T20:48:43.827Z,59.00
2022-11-12T20:51:29.224Z,49.90
2022-11-12T20:54:00.267Z,59.20
2022-11-12T20:56:30.061Z,49.90
2022-11-12T20:58:58.864Z,49.80
2022-11-12T21:01:30.090Z,57.30
2022-11-12T21:03:59.278Z,58.60
2022-11-12T21:06:29.429Z,50.00
2022-11-12T21:09:00.312Z,57.80
2022-11-12T21:11:28.396Z,50.00
2022-11-12T21:13:56.508Z,59.10
2022-11-12T21:16:24.607Z,50.00
2022-11-12T21:18:54.273Z,57.00
2022-11-12T21:21:22.370Z,50.00
2022-11-12T21:23:51.374Z,49.90
2022-11-12T21:26:21.375Z,50.00
2022-11-12T21:28:50.053Z,50.00
2022-11-12T21:31:21.012Z,50.00
2022-11-12T21:33:51.296Z,58.00
2022-11-12T21:36:21.329Z,58.10
2022-11-12T21:38:49.569Z,49.90
2022-11-12T21:41:19.577Z,58.60
2022-11-12T21:43:47.541Z,49.90
2022-11-12T21:46:17.908Z,59.00
2022-11-12T21:48:49.938Z,50.00
2022-11-12T21:51:24.079Z,50.00
2022-11-12T21:53:55.152Z,49.60
2022-11-12T21:56:24.611Z,50.70
2022-11-12T21:58:53.977Z,51.20
2022-11-12T22:01:25.243Z,60.10
2022-11-12T22:03:55.212Z,60.80
2022-11-12T22:06:26.219Z,60.80
2022-11-12T22:08:55.380Z,61.50
2022-11-12T22:11:24.209Z,51.30
2022-11-12T22:13:52.350Z,51.30
2022-11-12T22:16:22.240Z,51.30
2022-11-12T22:18:51.727Z,51.40
2022-11-12T22:21:21.324Z,51.30
2022-11-12T22:23:51.383Z,50.70
2022-11-12T22:26:25.190Z,51.20
2022-11-12T22:28:54.044Z,51.30
2022-11-12T22:31:24.455Z,51.30
2022-11-12T22:33:52.587Z,51.20
2022-11-12T22:36:22.498Z,51.30
2022-11-12T22:38:53.345Z,59.10
2022-11-12T22:41:23.686Z,59.40
2022-11-12T22:43:53.112Z,60.10
2022-11-12T22:46:22.939Z,58.90
2022-11-12T22:48:51.404Z,51.10
2022-11-12T22:51:21.164Z,58.70
2022-11-12T22:53:53.499Z,51.20
2022-11-12T22:56:23.590Z,51.20
2022-11-12T22:58:51.802Z,51.10
2022-11-12T23:01:22.331Z,58.80
2022-11-12T23:03:51.761Z,51.20
2022-11-12T23:06:20.411Z,61.80
2022-11-12T23:08:49.244Z,63.00
2022-11-12T23:11:19.862Z,63.50
2022-11-12T23:13:49.951Z,63.80
2022-11-12T23:16:19.063Z,53.50
2022-11-12T23:18:47.836Z,53.30
2022-11-12T23:21:17.964Z,52.90
2022-11-12T23:23:46.079Z,64.90
2022-11-12T23:26:16.153Z,64.70
2022-11-12T23:28:44.038Z,54.60
2022-11-12T23:31:15.913Z,54.60
2022-11-12T23:33:46.473Z,64.40
2022-11-12T23:36:14.788Z,64.40
2022-11-12T23:38:43.217Z,55.00
2022-11-12T23:41:13.315Z,55.10
2022-11-12T23:43:41.323Z,55.10
2022-11-12T23:46:09.600Z,55.00
2022-11-12T23:48:39.122Z,55.10
2022-11-12T23:51:10.781Z,55.10
2022-11-12T23:53:40.072Z,55.10
2022-11-12T23:56:11.856Z,61.80
2022-11-12T23:58:41.175Z,54.90
